sensor_id;sensor_type;location;lat;lon;timestamp;P1;durP1;ratioP1;P2;durP2;ratioP2
62574;SDS011;70119;45.638;11.714;2024-01-25T00:01:42;15.98;;;12.25;;
62574;SDS011;70119;45.638;11.714;2024-01-25T00:04:07;17.30;;;11.90;;
62574;SDS011;70119;45.638;11.714;2024-01-25T00:06:33;16.55;;;12.45;;
62574;SDS011;70119;45.638;11.714;2024-01-25T00:09:00;15.13;;;11.80;;
62574;SDS011;70119;45.638;11.714;2024-01-25T00:11:26;15.68;;;11.90;;
62574;SDS011;70119;45.638;11.714;2024-01-25T00:13:56;16.92;;;12.68;;
62574;SDS011;70119;45.638;11.714;2024-01-25T00:16:22;17.52;;;12.40;;
62574;SDS011;70119;45.638;11.714;2024-01-25T00:27:00;18.73;;;12.65;;
62574;SDS011;70119;45.638;11.714;2024-01-25T00:29:26;16.45;;;12.13;;
62574;SDS011;70119;45.638;11.714;2024-01-25T00:31:52;17.45;;;12.60;;
62574;SDS011;70119;45.638;11.714;2024-01-25T00:34:18;16.83;;;12.77;;
62574;SDS011;70119;45.638;11.714;2024-01-25T00:36:44;17.35;;;13.20;;
62574;SDS011;70119;45.638;11.714;2024-01-25T00:39:10;17.60;;;12.90;;
62574;SDS011;70119;45.638;11.714;2024-01-25T00:41:36;18.05;;;13.25;;
62574;SDS011;70119;45.638;11.714;2024-01-25T00:44:02;18.00;;;12.93;;
62574;SDS011;70119;45.638;11.714;2024-01-25T00:46:28;18.00;;;13.07;;
62574;SDS011;70119;45.638;11.714;2024-01-25T00:48:54;18.10;;;13.30;;
62574;SDS011;70119;45.638;11.714;2024-01-25T00:51:21;15.50;;;12.25;;
62574;SDS011;70119;45.638;11.714;2024-01-25T00:53:50;16.48;;;12.70;;
62574;SDS011;70119;45.638;11.714;2024-01-25T01:02:03;18.27;;;13.20;;
62574;SDS011;70119;45.638;11.714;2024-01-25T01:04:31;16.08;;;12.70;;
62574;SDS011;70119;45.638;11.714;2024-01-25T01:06:57;16.30;;;12.80;;
62574;SDS011;70119;45.638;11.714;2024-01-25T01:09:23;16.83;;;12.80;;
62574;SDS011;70119;45.638;11.714;2024-01-25T01:11:49;17.35;;;13.10;;
62574;SDS011;70119;45.638;11.714;2024-01-25T01:14:17;17.98;;;13.20;;
62574;SDS011;70119;45.638;11.714;2024-01-25T01:16:43;16.02;;;12.48;;
62574;SDS011;70119;45.638;11.714;2024-01-25T01:19:09;16.63;;;12.80;;
62574;SDS011;70119;45.638;11.714;2024-01-25T01:21:35;16.40;;;12.60;;
62574;SDS011;70119;45.638;11.714;2024-01-25T01:24:01;17.13;;;12.90;;
62574;SDS011;70119;45.638;11.714;2024-01-25T01:26:27;17.83;;;13.00;;
62574;SDS011;70119;45.638;11.714;2024-01-25T01:28:53;17.90;;;12.88;;
62574;SDS011;70119;45.638;11.714;2024-01-25T01:31:19;16.48;;;12.77;;
62574;SDS011;70119;45.638;11.714;2024-01-25T01:33:45;16.50;;;12.93;;
62574;SDS011;70119;45.638;11.714;2024-01-25T01:36:11;17.38;;;13.32;;
62574;SDS011;70119;45.638;11.714;2024-01-25T01:38:37;17.42;;;12.68;;
62574;SDS011;70119;45.638;11.714;2024-01-25T01:41:03;17.67;;;13.10;;
62574;SDS011;70119;45.638;11.714;2024-01-25T01:43:29;17.40;;;13.18;;
62574;SDS011;70119;45.638;11.714;2024-01-25T01:45:55;15.48;;;12.18;;
62574;SDS011;70119;45.638;11.714;2024-01-25T01:48:29;17.02;;;12.88;;
62574;SDS011;70119;45.638;11.714;2024-01-25T01:50:55;15.68;;;12.20;;
62574;SDS011;70119;45.638;11.714;2024-01-25T01:53:21;15.68;;;12.63;;
62574;SDS011;70119;45.638;11.714;2024-01-25T01:55:47;17.15;;;12.95;;
62574;SDS011;70119;45.638;11.714;2024-01-25T01:58:13;16.35;;;12.93;;
62574;SDS011;70119;45.638;11.714;2024-01-25T02:00:39;16.42;;;12.52;;
62574;SDS011;70119;45.638;11.714;2024-01-25T02:03:06;17.63;;;13.07;;
62574;SDS011;70119;45.638;11.714;2024-01-25T02:05:32;16.67;;;12.63;;
62574;SDS011;70119;45.638;11.714;2024-01-25T02:07:58;17.38;;;13.13;;
62574;SDS011;70119;45.638;11.714;2024-01-25T02:10:24;17.85;;;13.43;;
62574;SDS011;70119;45.638;11.714;2024-01-25T02:12:50;16.58;;;13.18;;
62574;SDS011;70119;45.638;11.714;2024-01-25T02:15:16;17.00;;;13.15;;
62574;SDS011;70119;45.638;11.714;2024-01-25T02:17:41;17.00;;;13.00;;
62574;SDS011;70119;45.638;11.714;2024-01-25T02:20:07;16.48;;;12.80;;
62574;SDS011;70119;45.638;11.714;2024-01-25T02:22:34;18.60;;;12.98;;
62574;SDS011;70119;45.638;11.714;2024-01-25T02:24:59;18.10;;;13.45;;
62574;SDS011;70119;45.638;11.714;2024-01-25T02:27:25;16.80;;;13.18;;
62574;SDS011;70119;45.638;11.714;2024-01-25T02:29:51;17.05;;;13.18;;
62574;SDS011;70119;45.638;11.714;2024-01-25T02:32:17;18.75;;;13.55;;
62574;SDS011;70119;45.638;11.714;2024-01-25T02:34:43;15.60;;;12.13;;
62574;SDS011;70119;45.638;11.714;2024-01-25T02:37:09;17.35;;;13.45;;
62574;SDS011;70119;45.638;11.714;2024-01-25T02:39:37;16.42;;;12.93;;
62574;SDS011;70119;45.638;11.714;2024-01-25T02:42:03;16.83;;;13.20;;
62574;SDS011;70119;45.638;11.714;2024-01-25T02:44:29;15.40;;;12.55;;
62574;SDS011;70119;45.638;11.714;2024-01-25T02:46:54;16.55;;;12.68;;
62574;SDS011;70119;45.638;11.714;2024-01-25T02:49:20;15.43;;;13.00;;
62574;SDS011;70119;45.638;11.714;2024-01-25T02:51:46;19.65;;;14.23;;
62574;SDS011;70119;45.638;11.714;2024-01-25T02:54:12;17.70;;;13.00;;
62574;SDS011;70119;45.638;11.714;2024-01-25T02:56:38;19.40;;;14.10;;
62574;SDS011;70119;45.638;11.714;2024-01-25T02:59:03;15.75;;;12.52;;
62574;SDS011;70119;45.638;11.714;2024-01-25T03:01:37;16.58;;;12.73;;
62574;SDS011;70119;45.638;11.714;2024-01-25T03:04:03;15.75;;;12.70;;
62574;SDS011;70119;45.638;11.714;2024-01-25T03:06:29;17.48;;;13.45;;
62574;SDS011;70119;45.638;11.714;2024-01-25T03:08:55;15.98;;;12.90;;
62574;SDS011;70119;45.638;11.714;2024-01-25T03:11:21;16.15;;;13.13;;
62574;SDS011;70119;45.638;11.714;2024-01-25T03:13:47;17.25;;;13.07;;
62574;SDS011;70119;45.638;11.714;2024-01-25T03:16:13;16.92;;;12.90;;
62574;SDS011;70119;45.638;11.714;2024-01-25T03:18:38;16.38;;;13.27;;
62574;SDS011;70119;45.638;11.714;2024-01-25T03:21:04;18.83;;;13.07;;
62574;SDS011;70119;45.638;11.714;2024-01-25T03:23:30;17.48;;;13.40;;
62574;SDS011;70119;45.638;11.714;2024-01-25T03:25:56;16.90;;;13.40;;
62574;SDS011;70119;45.638;11.714;2024-01-25T03:28:22;17.05;;;13.23;;
62574;SDS011;70119;45.638;11.714;2024-01-25T03:30:48;16.85;;;13.25;;
62574;SDS011;70119;45.638;11.714;2024-01-25T03:33:13;16.30;;;13.27;;
62574;SDS011;70119;45.638;11.714;2024-01-25T03:35:39;19.38;;;13.63;;
62574;SDS011;70119;45.638;11.714;2024-01-25T03:38:05;17.80;;;13.23;;
62574;SDS011;70119;45.638;11.714;2024-01-25T03:40:31;16.90;;;13.20;;
62574;SDS011;70119;45.638;11.714;2024-01-25T03:42:57;16.48;;;13.30;;
62574;SDS011;70119;45.638;11.714;2024-01-25T03:45:23;15.82;;;12.80;;
62574;SDS011;70119;45.638;11.714;2024-01-25T03:47:49;16.23;;;13.13;;
62574;SDS011;70119;45.638;11.714;2024-01-25T03:50:15;17.27;;;12.70;;
62574;SDS011;70119;45.638;11.714;2024-01-25T03:52:40;16.10;;;12.50;;
62574;SDS011;70119;45.638;11.714;2024-01-25T03:55:06;16.67;;;12.82;;
62574;SDS011;70119;45.638;11.714;2024-01-25T03:57:32;17.05;;;12.93;;
62574;SDS011;70119;45.638;11.714;2024-01-25T03:59:58;17.23;;;13.18;;
62574;SDS011;70119;45.638;11.714;2024-01-25T04:02:24;16.60;;;12.95;;
62574;SDS011;70119;45.638;11.714;2024-01-25T04:04:50;16.90;;;13.20;;
62574;SDS011;70119;45.638;11.714;2024-01-25T04:07:16;17.42;;;12.68;;
62574;SDS011;70119;45.638;11.714;2024-01-25T04:09:42;18.35;;;12.88;;
62574;SDS011;70119;45.638;11.714;2024-01-25T04:12:07;17.13;;;12.75;;
62574;SDS011;70119;45.638;11.714;2024-01-25T04:14:33;17.02;;;12.90;;
62574;SDS011;70119;45.638;11.714;2024-01-25T04:16:59;16.50;;;12.48;;
62574;SDS011;70119;45.638;11.714;2024-01-25T04:19:25;15.82;;;12.68;;
62574;SDS011;70119;45.638;11.714;2024-01-25T04:21:51;15.15;;;12.20;;
62574;SDS011;70119;45.638;11.714;2024-01-25T04:24:16;16.42;;;12.90;;
62574;SDS011;70119;45.638;11.714;2024-01-25T04:26:42;17.45;;;12.90;;
62574;SDS011;70119;45.638;11.714;2024-01-25T04:29:08;17.20;;;12.40;;
62574;SDS011;70119;45.638;11.714;2024-01-25T04:31:34;16.95;;;12.93;;
62574;SDS011;70119;45.638;11.714;2024-01-25T04:34:00;16.13;;;12.50;;
62574;SDS011;70119;45.638;11.714;2024-01-25T04:36:26;15.18;;;12.40;;
62574;SDS011;70119;45.638;11.714;2024-01-25T04:38:52;15.43;;;12.45;;
62574;SDS011;70119;45.638;11.714;2024-01-25T04:41:20;15.80;;;12.38;;
62574;SDS011;70119;45.638;11.714;2024-01-25T04:43:46;16.90;;;12.75;;
62574;SDS011;70119;45.638;11.714;2024-01-25T04:46:12;16.10;;;12.13;;
62574;SDS011;70119;45.638;11.714;2024-01-25T04:48:39;17.30;;;12.82;;
62574;SDS011;70119;45.638;11.714;2024-01-25T04:51:08;16.55;;;12.45;;
62574;SDS011;70119;45.638;11.714;2024-01-25T04:53:40;15.80;;;11.95;;
62574;SDS011;70119;45.638;11.714;2024-01-25T04:56:05;16.45;;;12.35;;
62574;SDS011;70119;45.638;11.714;2024-01-25T04:58:31;15.77;;;11.95;;
62574;SDS011;70119;45.638;11.714;2024-01-25T05:00:57;15.32;;;11.98;;
62574;SDS011;70119;45.638;11.714;2024-01-25T05:03:26;16.17;;;12.27;;
62574;SDS011;70119;45.638;11.714;2024-01-25T05:05:55;16.23;;;12.70;;
62574;SDS011;70119;45.638;11.714;2024-01-25T05:08:23;14.98;;;12.00;;
62574;SDS011;70119;45.638;11.714;2024-01-25T05:10:52;16.17;;;12.48;;
62574;SDS011;70119;45.638;11.714;2024-01-25T05:13:18;16.58;;;12.45;;
62574;SDS011;70119;45.638;11.714;2024-01-25T05:15:45;15.00;;;11.60;;
62574;SDS011;70119;45.638;11.714;2024-01-25T05:18:11;16.60;;;12.38;;
62574;SDS011;70119;45.638;11.714;2024-01-25T05:20:39;15.77;;;11.63;;
62574;SDS011;70119;45.638;11.714;2024-01-25T05:23:07;14.93;;;11.45;;
62574;SDS011;70119;45.638;11.714;2024-01-25T05:25:33;16.20;;;12.07;;
62574;SDS011;70119;45.638;11.714;2024-01-25T05:28:01;14.80;;;11.55;;
62574;SDS011;70119;45.638;11.714;2024-01-25T05:30:27;14.52;;;11.40;;
62574;SDS011;70119;45.638;11.714;2024-01-25T05:32:53;16.23;;;12.50;;
62574;SDS011;70119;45.638;11.714;2024-01-25T05:35:20;16.00;;;11.88;;
62574;SDS011;70119;45.638;11.714;2024-01-25T05:37:46;16.55;;;11.85;;
62574;SDS011;70119;45.638;11.714;2024-01-25T05:40:12;15.05;;;11.48;;
62574;SDS011;70119;45.638;11.714;2024-01-25T05:42:38;15.38;;;11.40;;
62574;SDS011;70119;45.638;11.714;2024-01-25T05:45:05;15.85;;;11.70;;
62574;SDS011;70119;45.638;11.714;2024-01-25T05:47:32;15.23;;;11.75;;
62574;SDS011;70119;45.638;11.714;2024-01-25T05:49:59;14.65;;;11.43;;
62574;SDS011;70119;45.638;11.714;2024-01-25T05:52:26;16.65;;;11.68;;
62574;SDS011;70119;45.638;11.714;2024-01-25T05:54:52;15.23;;;11.65;;
62574;SDS011;70119;45.638;11.714;2024-01-25T05:57:18;15.77;;;11.80;;
62574;SDS011;70119;45.638;11.714;2024-01-25T05:59:45;14.40;;;11.00;;
62574;SDS011;70119;45.638;11.714;2024-01-25T06:02:11;15.25;;;11.02;;
62574;SDS011;70119;45.638;11.714;2024-01-25T06:04:37;15.63;;;11.63;;
62574;SDS011;70119;45.638;11.714;2024-01-25T06:07:03;14.85;;;11.30;;
62574;SDS011;70119;45.638;11.714;2024-01-25T06:09:29;14.55;;;11.45;;
62574;SDS011;70119;45.638;11.714;2024-01-25T06:11:57;14.20;;;11.35;;
62574;SDS011;70119;45.638;11.714;2024-01-25T06:14:23;14.18;;;10.93;;
62574;SDS011;70119;45.638;11.714;2024-01-25T06:16:49;15.15;;;11.35;;
62574;SDS011;70119;45.638;11.714;2024-01-25T06:19:15;14.20;;;10.95;;
62574;SDS011;70119;45.638;11.714;2024-01-25T06:21:41;14.98;;;11.18;;
62574;SDS011;70119;45.638;11.714;2024-01-25T06:24:07;14.50;;;10.68;;
62574;SDS011;70119;45.638;11.714;2024-01-25T06:26:33;13.98;;;10.50;;
62574;SDS011;70119;45.638;11.714;2024-01-25T06:28:59;15.25;;;10.98;;
62574;SDS011;70119;45.638;11.714;2024-01-25T06:31:25;14.30;;;10.88;;
62574;SDS011;70119;45.638;11.714;2024-01-25T06:33:51;15.10;;;11.15;;
62574;SDS011;70119;45.638;11.714;2024-01-25T06:36:20;13.95;;;10.73;;
62574;SDS011;70119;45.638;11.714;2024-01-25T06:38:46;13.40;;;10.18;;
62574;SDS011;70119;45.638;11.714;2024-01-25T06:41:12;15.25;;;11.07;;
62574;SDS011;70119;45.638;11.714;2024-01-25T06:43:38;13.50;;;10.38;;
62574;SDS011;70119;45.638;11.714;2024-01-25T06:46:08;13.88;;;10.55;;
62574;SDS011;70119;45.638;11.714;2024-01-25T06:48:34;14.13;;;10.63;;
62574;SDS011;70119;45.638;11.714;2024-01-25T06:51:01;13.68;;;10.48;;
62574;SDS011;70119;45.638;11.714;2024-01-25T06:53:27;13.65;;;10.68;;
62574;SDS011;70119;45.638;11.714;2024-01-25T06:55:53;15.20;;;10.63;;
62574;SDS011;70119;45.638;11.714;2024-01-25T06:58:19;15.02;;;10.07;;
62574;SDS011;70119;45.638;11.714;2024-01-25T07:00:45;16.02;;;10.93;;
62574;SDS011;70119;45.638;11.714;2024-01-25T07:03:12;16.48;;;10.68;;
62574;SDS011;70119;45.638;11.714;2024-01-25T07:05:38;18.17;;;10.98;;
62574;SDS011;70119;45.638;11.714;2024-01-25T07:08:04;14.63;;;10.50;;
62574;SDS011;70119;45.638;11.714;2024-01-25T07:10:30;16.05;;;11.07;;
62574;SDS011;70119;45.638;11.714;2024-01-25T07:12:57;12.52;;;9.85;;
62574;SDS011;70119;45.638;11.714;2024-01-25T07:15:22;14.18;;;10.45;;
62574;SDS011;70119;45.638;11.714;2024-01-25T07:17:48;14.85;;;10.57;;
62574;SDS011;70119;45.638;11.714;2024-01-25T07:20:14;16.48;;;10.60;;
62574;SDS011;70119;45.638;11.714;2024-01-25T07:22:40;13.75;;;10.52;;
62574;SDS011;70119;45.638;11.714;2024-01-25T07:25:06;13.98;;;10.10;;
62574;SDS011;70119;45.638;11.714;2024-01-25T07:27:32;13.73;;;10.00;;
62574;SDS011;70119;45.638;11.714;2024-01-25T07:29:58;13.35;;;9.98;;
62574;SDS011;70119;45.638;11.714;2024-01-25T07:32:24;13.20;;;9.93;;
62574;SDS011;70119;45.638;11.714;2024-01-25T07:34:50;14.82;;;10.85;;
62574;SDS011;70119;45.638;11.714;2024-01-25T07:37:16;13.73;;;10.07;;
62574;SDS011;70119;45.638;11.714;2024-01-25T07:39:43;13.43;;;9.93;;
62574;SDS011;70119;45.638;11.714;2024-01-25T07:42:10;14.50;;;10.27;;
62574;SDS011;70119;45.638;11.714;2024-01-25T07:44:37;35.83;;;22.10;;
62574;SDS011;70119;45.638;11.714;2024-01-25T07:47:04;18.73;;;13.13;;
62574;SDS011;70119;45.638;11.714;2024-01-25T07:49:32;18.42;;;12.52;;
62574;SDS011;70119;45.638;11.714;2024-01-25T07:51:58;18.98;;;11.88;;
62574;SDS011;70119;45.638;11.714;2024-01-25T07:54:24;15.85;;;10.77;;
62574;SDS011;70119;45.638;11.714;2024-01-25T07:56:52;15.38;;;10.90;;
62574;SDS011;70119;45.638;11.714;2024-01-25T07:59:18;17.33;;;11.05;;
62574;SDS011;70119;45.638;11.714;2024-01-25T08:01:45;18.73;;;11.55;;
62574;SDS011;70119;45.638;11.714;2024-01-25T08:04:16;16.95;;;11.73;;
62574;SDS011;70119;45.638;11.714;2024-01-25T08:07:02;16.38;;;11.05;;
62574;SDS011;70119;45.638;11.714;2024-01-25T08:09:28;15.93;;;10.43;;
62574;SDS011;70119;45.638;11.714;2024-01-25T08:11:55;15.48;;;10.68;;
62574;SDS011;70119;45.638;11.714;2024-01-25T08:14:25;14.98;;;11.07;;
62574;SDS011;70119;45.638;11.714;2024-01-25T08:16:58;15.68;;;11.32;;
62574;SDS011;70119;45.638;11.714;2024-01-25T08:19:23;15.60;;;10.95;;
62574;SDS011;70119;45.638;11.714;2024-01-25T08:21:49;18.05;;;10.35;;
62574;SDS011;70119;45.638;11.714;2024-01-25T08:24:15;15.95;;;10.88;;
62574;SDS011;70119;45.638;11.714;2024-01-25T08:26:41;15.07;;;10.98;;
62574;SDS011;70119;45.638;11.714;2024-01-25T08:29:07;18.33;;;11.70;;
62574;SDS011;70119;45.638;11.714;2024-01-25T08:31:33;17.88;;;10.88;;
62574;SDS011;70119;45.638;11.714;2024-01-25T08:33:59;14.68;;;10.52;;
62574;SDS011;70119;45.638;11.714;2024-01-25T08:36:25;14.15;;;10.30;;
62574;SDS011;70119;45.638;11.714;2024-01-25T08:38:51;15.50;;;10.43;;
62574;SDS011;70119;45.638;11.714;2024-01-25T08:41:17;15.40;;;10.07;;
62574;SDS011;70119;45.638;11.714;2024-01-25T08:43:43;14.25;;;9.75;;
62574;SDS011;70119;45.638;11.714;2024-01-25T08:46:08;14.77;;;9.75;;
62574;SDS011;70119;45.638;11.714;2024-01-25T08:48:34;15.63;;;10.10;;
62574;SDS011;70119;45.638;11.714;2024-01-25T08:51:00;12.07;;;9.23;;
62574;SDS011;70119;45.638;11.714;2024-01-25T08:53:27;13.18;;;9.85;;
62574;SDS011;70119;45.638;11.714;2024-01-25T08:55:53;13.60;;;9.65;;
62574;SDS011;70119;45.638;11.714;2024-01-25T08:58:19;14.05;;;9.48;;
62574;SDS011;70119;45.638;11.714;2024-01-25T09:00:46;14.20;;;9.68;;
62574;SDS011;70119;45.638;11.714;2024-01-25T09:03:12;12.85;;;9.35;;
62574;SDS011;70119;45.638;11.714;2024-01-25T09:05:38;12.93;;;9.10;;
62574;SDS011;70119;45.638;11.714;2024-01-25T09:10:39;12.38;;;8.50;;
62574;SDS011;70119;45.638;11.714;2024-01-25T09:13:06;12.15;;;8.52;;
62574;SDS011;70119;45.638;11.714;2024-01-25T09:15:32;15.32;;;9.02;;
62574;SDS011;70119;45.638;11.714;2024-01-25T09:17:58;12.70;;;9.32;;
62574;SDS011;70119;45.638;11.714;2024-01-25T09:20:23;11.27;;;8.18;;
62574;SDS011;70119;45.638;11.714;2024-01-25T09:22:50;12.57;;;8.38;;
62574;SDS011;70119;45.638;11.714;2024-01-25T09:25:18;12.60;;;9.00;;
62574;SDS011;70119;45.638;11.714;2024-01-25T09:27:44;11.73;;;8.43;;
62574;SDS011;70119;45.638;11.714;2024-01-25T09:30:10;11.10;;;8.45;;
62574;SDS011;70119;45.638;11.714;2024-01-25T09:32:37;11.68;;;8.48;;
62574;SDS011;70119;45.638;11.714;2024-01-25T09:35:03;12.85;;;8.85;;
62574;SDS011;70119;45.638;11.714;2024-01-25T09:37:29;13.23;;;8.98;;
62574;SDS011;70119;45.638;11.714;2024-01-25T09:39:55;13.27;;;8.55;;
62574;SDS011;70119;45.638;11.714;2024-01-25T09:42:24;12.27;;;8.40;;
62574;SDS011;70119;45.638;11.714;2024-01-25T09:44:49;12.32;;;8.50;;
62574;SDS011;70119;45.638;11.714;2024-01-25T09:47:19;11.70;;;8.93;;
62574;SDS011;70119;45.638;11.714;2024-01-25T09:49:46;13.52;;;8.65;;
62574;SDS011;70119;45.638;11.714;2024-01-25T09:52:14;13.18;;;8.90;;
62574;SDS011;70119;45.638;11.714;2024-01-25T09:54:44;12.13;;;8.40;;
62574;SDS011;70119;45.638;11.714;2024-01-25T09:57:14;12.80;;;9.10;;
62574;SDS011;70119;45.638;11.714;2024-01-25T09:59:44;11.48;;;8.20;;
62574;SDS011;70119;45.638;11.714;2024-01-25T10:02:10;13.00;;;8.38;;
62574;SDS011;70119;45.638;11.714;2024-01-25T10:04:36;11.68;;;8.48;;
62574;SDS011;70119;45.638;11.714;2024-01-25T10:07:04;13.50;;;8.70;;
62574;SDS011;70119;45.638;11.714;2024-01-25T10:09:39;12.13;;;8.57;;
62574;SDS011;70119;45.638;11.714;2024-01-25T10:12:06;11.38;;;8.57;;
62574;SDS011;70119;45.638;11.714;2024-01-25T10:14:32;11.75;;;8.57;;
62574;SDS011;70119;45.638;11.714;2024-01-25T10:16:58;12.43;;;8.68;;
62574;SDS011;70119;45.638;11.714;2024-01-25T10:19:24;12.13;;;8.57;;
62574;SDS011;70119;45.638;11.714;2024-01-25T10:21:50;10.82;;;8.23;;
62574;SDS011;70119;45.638;11.714;2024-01-25T10:24:16;11.30;;;8.35;;
62574;SDS011;70119;45.638;11.714;2024-01-25T10:26:42;11.10;;;8.10;;
62574;SDS011;70119;45.638;11.714;2024-01-25T10:29:08;11.95;;;7.63;;
62574;SDS011;70119;45.638;11.714;2024-01-25T10:31:38;11.25;;;7.70;;
62574;SDS011;70119;45.638;11.714;2024-01-25T10:36:36;10.25;;;7.57;;
62574;SDS011;70119;45.638;11.714;2024-01-25T10:39:04;10.75;;;8.00;;
62574;SDS011;70119;45.638;11.714;2024-01-25T10:41:34;13.45;;;8.20;;
62574;SDS011;70119;45.638;11.714;2024-01-25T10:44:01;10.45;;;7.55;;
62574;SDS011;70119;45.638;11.714;2024-01-25T10:46:28;11.00;;;7.80;;
62574;SDS011;70119;45.638;11.714;2024-01-25T10:48:57;12.02;;;7.70;;
62574;SDS011;70119;45.638;11.714;2024-01-25T10:51:27;10.23;;;7.78;;
62574;SDS011;70119;45.638;11.714;2024-01-25T10:53:53;12.63;;;7.93;;
62574;SDS011;70119;45.638;11.714;2024-01-25T10:56:20;10.88;;;7.50;;
62574;SDS011;70119;45.638;11.714;2024-01-25T10:58:46;10.15;;;6.97;;
62574;SDS011;70119;45.638;11.714;2024-01-25T11:01:12;10.50;;;7.60;;
62574;SDS011;70119;45.638;11.714;2024-01-25T11:03:39;10.00;;;7.35;;
62574;SDS011;70119;45.638;11.714;2024-01-25T11:06:08;9.38;;;7.13;;
62574;SDS011;70119;45.638;11.714;2024-01-25T11:08:35;10.25;;;7.10;;
62574;SDS011;70119;45.638;11.714;2024-01-25T11:11:05;9.40;;;7.22;;
62574;SDS011;70119;45.638;11.714;2024-01-25T11:13:34;9.57;;;7.10;;
62574;SDS011;70119;45.638;11.714;2024-01-25T11:16:16;9.32;;;6.95;;
62574;SDS011;70119;45.638;11.714;2024-01-25T11:18:49;9.85;;;7.25;;
62574;SDS011;70119;45.638;11.714;2024-01-25T11:24:13;9.80;;;7.22;;
62574;SDS011;70119;45.638;11.714;2024-01-25T11:26:46;10.60;;;7.38;;
62574;SDS011;70119;45.638;11.714;2024-01-25T11:29:15;9.98;;;7.22;;
62574;SDS011;70119;45.638;11.714;2024-01-25T11:31:46;9.93;;;6.65;;
62574;SDS011;70119;45.638;11.714;2024-01-25T11:34:13;10.23;;;7.38;;
62574;SDS011;70119;45.638;11.714;2024-01-25T11:36:40;10.73;;;7.95;;
62574;SDS011;70119;45.638;11.714;2024-01-25T11:39:08;10.63;;;7.32;;
62574;SDS011;70119;45.638;11.714;2024-01-25T11:41:35;12.20;;;7.75;;
62574;SDS011;70119;45.638;11.714;2024-01-25T11:44:01;10.95;;;7.80;;
62574;SDS011;70119;45.638;11.714;2024-01-25T11:46:31;10.77;;;7.82;;
62574;SDS011;70119;45.638;11.714;2024-01-25T11:49:00;10.90;;;8.15;;
62574;SDS011;70119;45.638;11.714;2024-01-25T11:51:26;10.52;;;7.35;;
62574;SDS011;70119;45.638;11.714;2024-01-25T11:53:52;11.13;;;7.53;;
62574;SDS011;70119;45.638;11.714;2024-01-25T11:56:19;9.20;;;6.70;;
62574;SDS011;70119;45.638;11.714;2024-01-25T11:58:48;10.48;;;7.00;;
62574;SDS011;70119;45.638;11.714;2024-01-25T12:01:14;9.15;;;6.82;;
62574;SDS011;70119;45.638;11.714;2024-01-25T12:03:42;9.55;;;6.85;;
62574;SDS011;70119;45.638;11.714;2024-01-25T12:06:09;9.18;;;6.55;;
62574;SDS011;70119;45.638;11.714;2024-01-25T12:08:35;9.30;;;6.72;;
62574;SDS011;70119;45.638;11.714;2024-01-25T12:11:09;9.52;;;6.57;;
62574;SDS011;70119;45.638;11.714;2024-01-25T12:13:35;8.85;;;6.28;;
62574;SDS011;70119;45.638;11.714;2024-01-25T12:16:05;8.90;;;6.38;;
62574;SDS011;70119;45.638;11.714;2024-01-25T12:18:32;9.57;;;6.55;;
62574;SDS011;70119;45.638;11.714;2024-01-25T12:21:01;10.52;;;6.57;;
62574;SDS011;70119;45.638;11.714;2024-01-25T12:23:32;9.73;;;6.20;;
62574;SDS011;70119;45.638;11.714;2024-01-25T12:26:02;10.73;;;6.00;;
62574;SDS011;70119;45.638;11.714;2024-01-25T12:28:30;7.82;;;5.72;;
62574;SDS011;70119;45.638;11.714;2024-01-25T12:31:00;8.27;;;5.90;;
62574;SDS011;70119;45.638;11.714;2024-01-25T12:33:30;10.63;;;6.43;;
62574;SDS011;70119;45.638;11.714;2024-01-25T12:35:57;9.07;;;6.13;;
62574;SDS011;70119;45.638;11.714;2024-01-25T12:38:24;9.60;;;6.18;;
62574;SDS011;70119;45.638;11.714;2024-01-25T12:40:51;8.73;;;6.28;;
62574;SDS011;70119;45.638;11.714;2024-01-25T12:43:18;7.82;;;5.43;;
62574;SDS011;70119;45.638;11.714;2024-01-25T12:45:51;8.23;;;5.60;;
62574;SDS011;70119;45.638;11.714;2024-01-25T12:48:20;7.57;;;5.70;;
62574;SDS011;70119;45.638;11.714;2024-01-25T12:50:46;8.18;;;5.50;;
62574;SDS011;70119;45.638;11.714;2024-01-25T12:53:22;7.93;;;5.72;;
62574;SDS011;70119;45.638;11.714;2024-01-25T12:55:50;7.93;;;5.45;;
62574;SDS011;70119;45.638;11.714;2024-01-25T12:58:16;8.15;;;5.80;;
62574;SDS011;70119;45.638;11.714;2024-01-25T13:00:42;8.30;;;5.63;;
62574;SDS011;70119;45.638;11.714;2024-01-25T13:03:10;7.53;;;5.55;;
62574;SDS011;70119;45.638;11.714;2024-01-25T13:05:36;8.15;;;5.60;;
62574;SDS011;70119;45.638;11.714;2024-01-25T13:08:04;7.88;;;5.50;;
62574;SDS011;70119;45.638;11.714;2024-01-25T13:10:30;7.85;;;5.43;;
62574;SDS011;70119;45.638;11.714;2024-01-25T13:12:59;8.15;;;5.47;;
62574;SDS011;70119;45.638;11.714;2024-01-25T13:15:25;7.93;;;5.40;;
62574;SDS011;70119;45.638;11.714;2024-01-25T13:17:52;7.38;;;5.20;;
62574;SDS011;70119;45.638;11.714;2024-01-25T13:20:17;8.98;;;5.95;;
62574;SDS011;70119;45.638;11.714;2024-01-25T13:22:43;8.90;;;6.05;;
62574;SDS011;70119;45.638;11.714;2024-01-25T13:25:09;9.02;;;5.53;;
62574;SDS011;70119;45.638;11.714;2024-01-25T13:27:37;7.28;;;5.10;;
62574;SDS011;70119;45.638;11.714;2024-01-25T13:30:03;8.10;;;5.55;;
62574;SDS011;70119;45.638;11.714;2024-01-25T13:32:30;7.03;;;4.95;;
62574;SDS011;70119;45.638;11.714;2024-01-25T13:34:56;7.53;;;5.20;;
62574;SDS011;70119;45.638;11.714;2024-01-25T13:37:21;7.78;;;5.57;;
62574;SDS011;70119;45.638;11.714;2024-01-25T13:39:47;8.65;;;5.72;;
62574;SDS011;70119;45.638;11.714;2024-01-25T13:42:13;7.60;;;5.28;;
62574;SDS011;70119;45.638;11.714;2024-01-25T13:44:39;8.20;;;5.25;;
62574;SDS011;70119;45.638;11.714;2024-01-25T13:47:05;7.45;;;5.20;;
62574;SDS011;70119;45.638;11.714;2024-01-25T13:49:31;8.15;;;4.85;;
62574;SDS011;70119;45.638;11.714;2024-01-25T13:51:59;7.55;;;5.10;;
62574;SDS011;70119;45.638;11.714;2024-01-25T13:54:28;6.25;;;4.72;;
62574;SDS011;70119;45.638;11.714;2024-01-25T13:56:54;6.68;;;4.90;;
62574;SDS011;70119;45.638;11.714;2024-01-25T13:59:20;7.30;;;5.30;;
62574;SDS011;70119;45.638;11.714;2024-01-25T14:01:46;7.45;;;5.25;;
62574;SDS011;70119;45.638;11.714;2024-01-25T14:04:12;7.53;;;5.00;;
62574;SDS011;70119;45.638;11.714;2024-01-25T14:06:38;7.38;;;4.90;;
62574;SDS011;70119;45.638;11.714;2024-01-25T14:09:04;5.85;;;4.50;;
62574;SDS011;70119;45.638;11.714;2024-01-25T14:11:30;6.93;;;4.93;;
62574;SDS011;70119;45.638;11.714;2024-01-25T14:13:56;7.28;;;5.05;;
62574;SDS011;70119;45.638;11.714;2024-01-25T14:16:22;6.53;;;4.90;;
62574;SDS011;70119;45.638;11.714;2024-01-25T14:18:48;7.95;;;5.07;;
62574;SDS011;70119;45.638;11.714;2024-01-25T14:21:14;6.38;;;4.63;;
62574;SDS011;70119;45.638;11.714;2024-01-25T14:23:40;6.28;;;4.30;;
62574;SDS011;70119;45.638;11.714;2024-01-25T14:26:06;7.05;;;4.78;;
62574;SDS011;70119;45.638;11.714;2024-01-25T14:28:31;7.80;;;4.63;;
62574;SDS011;70119;45.638;11.714;2024-01-25T14:30:57;6.78;;;4.65;;
62574;SDS011;70119;45.638;11.714;2024-01-25T14:33:23;6.20;;;4.30;;
62574;SDS011;70119;45.638;11.714;2024-01-25T14:35:49;7.25;;;4.68;;